Aeroporto :
LOGIN :

Iscrizione | Disclaimer

   EN    FR    IT 

 










Sommario :    VFR   VFR Marginale   IFR   IFR Intensivo   IFR Molto Intensivo
Visibilità : 
Base nubi : 
>= 8 km
>= 3000ft
5 / 8 km
1000 / 3000 ft
1500m / 5 km
500 / 1000 ft
800 / 1500m
200 / 500 ft
< 800m
< 200 ft
Simboli :   Temporali  Nebbia  Neve Forte  Precipitazioni Forti  Vento > 20 kt
SIGMETs :   Varie  Temporali  Ghiacco  Turbolenza  Onda orograficha  Ceneri Vulcaniche






- Altitudine del aeroporto : 183 ft
- Codice IATA : HAJ


EDDV - Hanover/Langenhagen Int.

ULTIMO METAR :
  • 270050Z 29001KT CAVOK 08/08 Q1034

METARs OBSOLETI :
  • 270020Z VRB01KT CAVOK 09/09 Q1034
  • 262350Z 01001KT CAVOK 10/09 Q1034
  • 262320Z 24001KT CAVOK 10/09 Q1034
  • 262250Z VRB01KT CAVOK 10/09 Q1034
  • 262220Z VRB01KT CAVOK 11/09 Q1034

TAF TAF EDDV
Valido dal 27 a 00 ore il 28 a 00 ore UTC


262300Z 2700/2724 VRB02KT CAVOK
PROB30
TEMPO 2702/2705 4000 BCFG
BECMG 2705/2707 31006KT
TEMPO 2713/2719 34012KT



MetMap, La meteo Aeronautica in un colpo d'occhio ! - Copyright ORBIFLY Dicembre 2007 - Disclaimer

ORBIFLY MET'MAP TEAM :

Programmazione e sviluppo : Alexandra Zaïnal
Concezione : Baudouin d'Aumeries
Aiuto per la programmazione : Marc-Olivier Méhu
Supporto tecnico e logistico : Manuel Goepfert
Aiuto per la traduzione : Arnaldo La Scala

Contatto : metmap@orbifly.com




FONTI E CREDITI :

   NOAA